Time;durP1;ratioP1;P1;durP2;ratioP2;P2;SDS_P1;SDS_P2;PMS_P1;PMS_P2;Temp;Humidity;BMP_temperature;BMP_pressure;BME280_temperature;BME280_humidity;BME280_pressure;Samples;Min_cycle;Max_cycle;Signal;HPM_P1;HPM_P2
2022/10/20 00:00:34;;;;;;;;;;;;;;;8.31;75.21;98625.69;5065625;28;19928;-56
2022/10/20 00:03:02;;;;;;;;;;;;;;;8.39;75.04;98624.31;5074033;28;19931;-56
2022/10/20 00:05:30;;;;;;;;;;;;;;;8.43;74.96;98621.88;5069761;28;20274;-56
2022/10/20 00:10:55;;;;;;;;;;;;;;;8.12;75.12;98603.03;5070586;28;19931;-56
2022/10/20 00:13:23;;;;;;;;;;;;;;;8.20;75.42;98594.31;5072899;28;19924;-56
2022/10/20 00:15:51;;;;;;;;;;;;;;;8.04;75.54;98584.66;5068769;28;19929;-56
2022/10/20 00:18:19;;;;;;;;;;;;;;;7.88;75.64;98586.63;5073452;28;20262;-56
2022/10/20 00:20:46;;;;;;;;;;;;;;;7.86;76.06;98584.19;5055407;28;20288;-56
2022/10/20 00:23:14;;;;;;;;;;;;;;;7.88;75.85;98582.03;5072516;28;20296;-56
2022/10/20 00:25:42;;;;;;;;;;;;;;;7.90;76.13;98579.06;5071510;28;20240;-56
2022/10/20 00:28:16;;;;;;;;;;;;;;;7.79;75.83;98577.47;5068505;28;20356;-56
2022/10/20 00:30:44;;;;;;;;;;;;;;;7.76;75.84;98573.41;5067507;28;19936;-56
2022/10/20 00:33:15;;;;;;;;;;;;;;;7.73;76.14;98574.00;5072406;28;19924;-56
2022/10/20 00:35:43;;;;;;;;;;;;;;;7.68;76.49;98576.72;5070804;28;19932;-56
2022/10/20 00:38:11;;;;;;;;;;;;;;;7.80;76.13;98571.78;5073275;28;19954;-56
2022/10/20 00:40:39;;;;;;;;;;;;;;;7.84;75.90;98575.56;5073101;28;20373;-56
2022/10/20 00:43:09;;;;;;;;;;;;;;;7.90;75.76;98575.53;5072880;28;19960;-56
2022/10/20 00:45:38;;;;;;;;;;;;;;;7.79;75.96;98572.88;5065794;28;20357;-56
2022/10/20 00:48:07;;;;;;;;;;;;;;;7.68;76.30;98571.31;5073019;28;19924;-56
2022/10/20 00:50:38;;;;;;;;;;;;;;;7.73;76.47;98573.19;5075861;28;19924;-57
2022/10/20 00:53:07;;;;;;;;;;;;;;;7.61;76.47;98570.75;5078259;28;20285;-56
2022/10/20 00:55:36;;;;;;;;;;;;;;;7.79;76.21;98566.66;5073616;28;20031;-56
2022/10/20 00:58:03;;;;;;;;;;;;;;;7.78;75.85;98570.47;5073401;28;19931;-56
2022/10/20 01:00:31;;;;;;;;;;;;;;;7.80;76.07;98574.50;5068134;28;20011;-56
2022/10/20 01:03:01;;;;;;;;;;;;;;;7.77;75.95;98569.63;5070115;28;20003;-56
2022/10/20 01:05:29;;;;;;;;;;;;;;;7.72;76.15;98566.94;5071622;28;20546;-56
2022/10/20 01:07:57;;;;;;;;;;;;;;;7.62;75.80;98567.00;5073786;28;19943;-56
2022/10/20 01:10:25;;;;;;;;;;;;;;;7.66;76.00;98562.63;5072781;28;19935;-56
2022/10/20 01:12:53;;;;;;;;;;;;;;;7.67;76.17;98556.16;5070786;28;19928;-56
2022/10/20 01:15:23;;;;;;;;;;;;;;;7.66;76.28;98559.13;5071369;28;19931;-56
2022/10/20 01:17:59;;;;;;;;;;;;;;;7.43;76.50;98555.16;5069719;28;20018;-56
2022/10/20 01:20:52;;;;;;;;;;;;;;;7.53;76.44;98541.59;5069663;28;19935;-56
2022/10/20 01:23:34;;;;;;;;;;;;;;;7.50;76.34;98544.84;5072249;28;19974;-56
2022/10/20 01:26:10;;;;;;;;;;;;;;;7.51;76.76;98547.28;5068027;28;19924;-56
2022/10/20 01:28:40;;;;;;;;;;;;;;;7.52;76.64;98550.81;5053386;28;19955;-56
2022/10/20 01:31:11;;;;;;;;;;;;;;;7.54;76.53;98548.63;5067788;28;20018;-56
2022/10/20 01:33:40;;;;;;;;;;;;;;;7.56;76.51;98552.69;5071449;28;19924;-56
2022/10/20 01:36:12;;;;;;;;;;;;;;;7.59;76.53;98545.91;5070019;28;19924;-56
2022/10/20 01:38:44;;;;;;;;;;;;;;;7.64;76.27;98554.00;5071347;28;20018;-56
2022/10/20 01:41:13;;;;;;;;;;;;;;;7.64;76.36;98554.00;5071571;28;19925;-56
2022/10/20 01:43:42;;;;;;;;;;;;;;;7.57;76.22;98546.19;5071506;28;20380;-56
2022/10/20 01:46:10;;;;;;;;;;;;;;;7.57;76.10;98539.97;5064508;28;19924;-56
2022/10/20 01:48:39;;;;;;;;;;;;;;;7.48;76.46;98537.03;5070745;28;20419;-56
2022/10/20 01:51:07;;;;;;;;;;;;;;;7.52;76.22;98534.59;5071293;28;19924;-56
2022/10/20 01:53:35;;;;;;;;;;;;;;;7.26;76.65;98536.56;5072653;28;19959;-56
2022/10/20 01:56:03;;;;;;;;;;;;;;;7.37;76.59;98537.34;5070803;28;20336;-56
2022/10/20 01:58:51;;;;;;;;;;;;;;;7.34;76.98;98533.28;5053213;28;20331;-56
2022/10/20 02:01:22;;;;;;;;;;;;;;;7.37;76.96;98526.53;5055595;28;19931;-56
2022/10/20 02:03:52;;;;;;;;;;;;;;;7.25;77.12;98524.13;5071616;28;20267;-56
2022/10/20 02:06:24;;;;;;;;;;;;;;;7.32;76.86;98514.63;5068864;28;20289;-56
2022/10/20 02:08:52;;;;;;;;;;;;;;;7.27;77.04;98517.34;5067506;28;20015;-56
2022/10/20 02:11:46;;;;;;;;;;;;;;;7.28;76.89;98508.16;5080087;28;20305;-57
2022/10/20 02:14:14;;;;;;;;;;;;;;;7.22;76.89;98506.56;5069561;28;19935;-56
2022/10/20 02:16:45;;;;;;;;;;;;;;;7.23;77.31;98507.34;5066598;28;19956;-56
2022/10/20 02:19:12;;;;;;;;;;;;;;;7.25;76.96;98502.50;5071509;28;19924;-56
2022/10/20 02:21:40;;;;;;;;;;;;;;;7.29;77.15;98498.16;5070171;28;19928;-56
2022/10/20 02:24:09;;;;;;;;;;;;;;;7.27;76.74;98494.91;5070799;28;19929;-56
2022/10/20 02:26:37;;;;;;;;;;;;;;;7.24;76.53;98493.56;5084751;28;19934;-56
2022/10/20 02:29:06;;;;;;;;;;;;;;;7.24;76.66;98485.47;5071054;28;20407;-56
2022/10/20 02:31:34;;;;;;;;;;;;;;;7.20;76.75;98484.41;5066356;28;20011;-56
2022/10/20 02:34:03;;;;;;;;;;;;;;;7.28;76.78;98481.13;5060996;28;19928;-56
2022/10/20 02:36:31;;;;;;;;;;;;;;;7.12;76.78;98484.97;5064777;28;19932;-56
2022/10/20 02:39:24;;;;;;;;;;;;;;;6.90;77.22;98484.47;5069851;28;19932;-56
2022/10/20 02:41:51;;;;;;;;;;;;;;;7.16;77.28;98482.53;5060076;28;19924;-56
2022/10/20 02:44:19;;;;;;;;;;;;;;;7.17;77.10;98476.84;5071199;28;19929;-56
2022/10/20 02:47:12;;;;;;;;;;;;;;;7.06;76.76;98473.34;5064863;28;19931;-56
2022/10/20 02:50:05;;;;;;;;;;;;;;;7.14;76.86;98468.47;5056890;28;19932;-57
2022/10/20 02:52:35;;;;;;;;;;;;;;;7.14;76.75;98466.59;5068549;28;19970;-56
2022/10/20 02:55:03;;;;;;;;;;;;;;;7.00;77.07;98462.84;5068424;28;19932;-56
2022/10/20 02:57:31;;;;;;;;;;;;;;;7.16;77.16;98475.22;5072537;28;20282;-57
2022/10/20 03:00:03;;;;;;;;;;;;;;;7.16;76.96;98471.72;5074120;28;19925;-56
2022/10/20 03:02:31;;;;;;;;;;;;;;;7.14;76.62;98474.69;5053935;28;20011;-63
2022/10/20 03:04:58;;;;;;;;;;;;;;;7.12;76.67;98476.84;5076074;28;20384;-56
2022/10/20 03:07:26;;;;;;;;;;;;;;;7.06;76.84;98473.34;5073799;28;19932;-56
2022/10/20 03:09:55;;;;;;;;;;;;;;;7.10;76.88;98470.94;5075354;28;19932;-56
2022/10/20 03:12:27;;;;;;;;;;;;;;;7.07;76.66;98474.97;5071071;28;19931;-56
2022/10/20 03:14:58;;;;;;;;;;;;;;;7.00;76.70;98476.34;5059888;28;19933;-56
2022/10/20 03:17:25;;;;;;;;;;;;;;;7.11;76.85;98480.66;5067032;28;19928;-56
2022/10/20 03:19:53;;;;;;;;;;;;;;;6.94;76.78;98469.34;5081286;28;19932;-61
2022/10/20 03:22:21;;;;;;;;;;;;;;;6.90;77.11;98479.06;5074239;28;19931;-55
2022/10/20 03:24:49;;;;;;;;;;;;;;;6.95;76.92;98473.66;5074327;28;19930;-56
2022/10/20 03:27:18;;;;;;;;;;;;;;;7.00;76.98;98474.47;5074256;28;20296;-56
2022/10/20 03:29:46;;;;;;;;;;;;;;;6.95;77.00;98485.28;5071504;28;20224;-56
2022/10/20 03:32:16;;;;;;;;;;;;;;;7.04;76.51;98482.84;5070061;28;19928;-56
2022/10/20 03:35:09;;;;;;;;;;;;;;;6.90;77.26;98485.28;5073226;28;19932;-56
2022/10/20 03:37:37;;;;;;;;;;;;;;;6.86;76.86;98478.81;5074089;28;19925;-56
2022/10/20 03:40:05;;;;;;;;;;;;;;;6.91;76.98;98473.38;5055989;28;19924;-56
2022/10/20 03:42:34;;;;;;;;;;;;;;;6.74;77.51;98473.69;5056094;28;20003;-56
2022/10/20 03:45:04;;;;;;;;;;;;;;;6.82;77.02;98477.75;5071341;28;19978;-56
2022/10/20 03:47:32;;;;;;;;;;;;;;;6.89;76.93;98472.88;5072318;28;19924;-56
2022/10/20 03:50:00;;;;;;;;;;;;;;;6.81;76.92;98470.72;5056354;28;20324;-56
2022/10/20 03:52:28;;;;;;;;;;;;;;;6.92;76.79;98468.78;5072828;28;20263;-56
2022/10/20 03:54:57;;;;;;;;;;;;;;;6.88;76.73;98459.66;5073516;28;19924;-56
2022/10/20 03:57:25;;;;;;;;;;;;;;;6.86;76.95;98467.19;5073846;28;19932;-56
2022/10/20 03:59:54;;;;;;;;;;;;;;;6.77;76.67;98475.88;5072524;28;20018;-56
2022/10/20 04:02:26;;;;;;;;;;;;;;;6.82;76.87;98470.47;5065928;28;19924;-56
2022/10/20 04:04:54;;;;;;;;;;;;;;;6.78;76.96;98461.28;5074170;28;19930;-56
2022/10/20 04:07:22;;;;;;;;;;;;;;;6.64;77.40;98454.81;5070920;28;20007;-56
2022/10/20 04:09:50;;;;;;;;;;;;;;;6.71;77.47;98449.97;5074765;28;19925;-56
2022/10/20 04:12:18;;;;;;;;;;;;;;;6.75;77.18;98455.59;5075442;28;19939;-56
2022/10/20 04:14:46;;;;;;;;;;;;;;;6.80;77.28;98452.91;5070081;28;19924;-56
2022/10/20 04:17:15;;;;;;;;;;;;;;;6.68;77.22;98461.28;5066365;28;20385;-56
2022/10/20 04:19:45;;;;;;;;;;;;;;;6.69;77.31;98465.59;5072324;28;19925;-55
2022/10/20 04:22:14;;;;;;;;;;;;;;;6.66;77.26;98459.94;5072458;28;20369;-56
2022/10/20 04:24:41;;;;;;;;;;;;;;;6.71;77.27;98449.97;5073025;28;20023;-56
2022/10/20 04:27:09;;;;;;;;;;;;;;;6.56;77.85;98458.88;5072786;28;19925;-56
2022/10/20 04:29:37;;;;;;;;;;;;;;;6.70;77.16;98447.50;5073258;28;19924;-58
2022/10/20 04:32:05;;;;;;;;;;;;;;;6.64;77.60;98444.00;5064964;28;19935;-56
2022/10/20 04:34:35;;;;;;;;;;;;;;;6.78;77.23;98458.56;5072003;28;19931;-56
2022/10/20 04:37:03;;;;;;;;;;;;;;;6.61;77.35;98460.78;5070215;28;19924;-56
2022/10/20 04:39:31;;;;;;;;;;;;;;;6.67;77.77;98459.69;5072128;28;20043;-56
2022/10/20 04:41:59;;;;;;;;;;;;;;;6.74;77.18;98462.09;5073195;28;20020;-56
2022/10/20 04:44:27;;;;;;;;;;;;;;;6.71;77.21;98466.16;5072721;28;19932;-56
2022/10/20 04:46:58;;;;;;;;;;;;;;;6.68;77.62;98457.78;5066360;28;19929;-56
2022/10/20 04:49:26;;;;;;;;;;;;;;;6.69;77.18;98457.50;5073357;28;19932;-56
2022/10/20 04:51:55;;;;;;;;;;;;;;;6.71;77.22;98449.97;5071650;28;20366;-56
2022/10/20 04:54:27;;;;;;;;;;;;;;;6.75;77.00;98442.91;5051470;28;20533;-56
2022/10/20 04:57:00;;;;;;;;;;;;;;;6.64;76.97;98444.00;5051636;28;19939;-56
2022/10/20 04:59:28;;;;;;;;;;;;;;;6.64;77.02;98435.91;5052182;28;19925;-56
2022/10/20 05:01:56;;;;;;;;;;;;;;;6.64;77.58;98432.41;5043156;28;19925;-56
2022/10/20 05:04:24;;;;;;;;;;;;;;;6.69;77.04;98418.91;5048935;28;19926;-57
2022/10/20 05:06:52;;;;;;;;;;;;;;;6.71;77.27;98405.91;5051750;28;19925;-57
2022/10/20 05:09:21;;;;;;;;;;;;;;;6.70;77.18;98407.81;5051600;28;19936;-57
2022/10/20 05:11:49;;;;;;;;;;;;;;;6.66;77.07;98412.16;5052509;28;19924;-57
2022/10/20 05:14:16;;;;;;;;;;;;;;;6.66;77.14;98409.47;5052249;28;19925;-56
2022/10/20 05:16:44;;;;;;;;;;;;;;;6.62;77.50;98405.69;5044866;28;19931;-57
2022/10/20 05:19:12;;;;;;;;;;;;;;;6.62;77.58;98400.28;5051623;28;19924;-56
2022/10/20 05:21:40;;;;;;;;;;;;;;;6.63;77.30;98406.50;5051934;28;19963;-56
2022/10/20 05:24:20;;;;;;;;;;;;;;;6.65;77.58;98397.03;5051199;28;19964;-56
2022/10/20 05:26:50;;;;;;;;;;;;;;;6.63;78.04;98396.50;5052156;28;19994;-57
2022/10/20 05:29:18;;;;;;;;;;;;;;;6.68;77.69;98396.50;5050291;28;19933;-56
2022/10/20 05:34:38;;;;;;;;;;;;;;;6.63;77.43;98396.50;5049884;28;19932;-56
2022/10/20 05:37:31;;;;;;;;;;;;;;;6.55;77.92;98400.56;5050535;28;19925;-56
2022/10/20 05:40:02;;;;;;;;;;;;;;;6.64;77.30;98403.50;5052013;28;19979;-56
2022/10/20 05:42:30;;;;;;;;;;;;;;;6.59;77.72;98406.22;5049918;28;20144;-56
2022/10/20 05:44:58;;;;;;;;;;;;;;;6.66;77.52;98414.03;5052398;28;19940;-56
2022/10/20 05:47:26;;;;;;;;;;;;;;;6.63;77.38;98420.78;5047141;28;20024;-56
2022/10/20 05:49:54;;;;;;;;;;;;;;;6.64;77.75;98417.00;5050528;28;19974;-57
2022/10/20 05:52:22;;;;;;;;;;;;;;;6.76;77.50;98417.50;5055260;28;19924;-56
2022/10/20 05:54:51;;;;;;;;;;;;;;;6.71;77.10;98412.16;5062050;28;19928;-56
2022/10/20 05:57:20;;;;;;;;;;;;;;;6.70;77.45;98399.72;5064362;28;19929;-57
2022/10/20 05:59:49;;;;;;;;;;;;;;;6.61;77.33;98395.16;5070964;28;20019;-57
2022/10/20 06:02:17;;;;;;;;;;;;;;;6.49;77.89;98396.25;5065759;28;19924;-56
2022/10/20 06:04:45;;;;;;;;;;;;;;;6.56;77.67;98394.09;5064160;28;20270;-56
2022/10/20 06:07:38;;;;;;;;;;;;;;;6.71;77.72;98385.16;5069186;28;19977;-56
2022/10/20 06:10:07;;;;;;;;;;;;;;;6.68;77.80;98379.47;5058158;28;19936;-56
2022/10/20 06:12:36;;;;;;;;;;;;;;;6.65;77.85;98386.22;5069997;28;19925;-56
2022/10/20 06:15:05;;;;;;;;;;;;;;;6.67;77.55;98378.69;5067861;28;19956;-56
2022/10/20 06:17:33;;;;;;;;;;;;;;;6.70;77.53;98382.69;5067578;28;19925;-56
2022/10/20 06:20:01;;;;;;;;;;;;;;;6.68;77.37;98382.19;5071206;28;20277;-56
2022/10/20 06:22:29;;;;;;;;;;;;;;;6.77;77.46;98384.06;5068901;28;19925;-56
2022/10/20 06:24:57;;;;;;;;;;;;;;;6.76;77.47;98387.81;5071322;28;20329;-56
2022/10/20 06:27:25;;;;;;;;;;;;;;;6.91;77.02;98395.06;5069331;28;19936;-56
2022/10/20 06:29:54;;;;;;;;;;;;;;;6.77;77.43;98386.75;5070427;28;19924;-56
2022/10/20 06:32:23;;;;;;;;;;;;;;;6.69;78.25;98375.69;5065011;28;20448;-56
2022/10/20 06:35:15;;;;;;;;;;;;;;;6.82;77.58;98380.53;5071135;28;19932;-56
2022/10/20 06:37:45;;;;;;;;;;;;;;;6.88;77.23;98384.03;5068303;28;19925;-56
2022/10/20 06:40:13;;;;;;;;;;;;;;;6.97;76.86;98385.84;5069002;28;19928;-56
2022/10/20 06:42:41;;;;;;;;;;;;;;;6.91;77.65;98372.66;5070409;28;19925;-57
2022/10/20 06:45:11;;;;;;;;;;;;;;;6.64;77.94;98379.22;5064225;28;19925;-56
2022/10/20 06:47:42;;;;;;;;;;;;;;;6.87;77.30;98379.69;5041822;28;20318;-57
2022/10/20 06:50:10;;;;;;;;;;;;;;;6.98;77.26;98373.19;5050719;28;19925;-57
2022/10/20 06:52:38;;;;;;;;;;;;;;;6.95;77.11;98379.13;5051717;28;19929;-56
2022/10/20 06:57:59;;;;;;;;;;;;;;;7.12;76.66;98390.38;5046885;28;20378;-56
2022/10/20 07:00:28;;;;;;;;;;;;;;;7.23;76.79;98391.97;5045367;28;20361;-56
2022/10/20 07:03:01;;;;;;;;;;;;;;;7.22;76.43;98390.34;5047618;28;19929;-56
2022/10/20 07:05:29;;;;;;;;;;;;;;;7.26;76.49;98393.31;5050055;28;20012;-58
2022/10/20 07:07:57;;;;;;;;;;;;;;;7.41;76.43;98393.25;5043383;28;19939;-56
2022/10/20 07:10:25;;;;;;;;;;;;;;;7.51;76.23;98376.13;5044275;28;19968;-56
2022/10/20 07:12:53;;;;;;;;;;;;;;;7.50;76.19;98369.13;5054942;28;19931;-56
2022/10/20 07:15:21;;;;;;;;;;;;;;;7.54;76.34;98373.69;5045335;28;20363;-55
2022/10/20 07:17:50;;;;;;;;;;;;;;;7.64;76.42;98374.72;5049989;28;19924;-56
2022/10/20 07:20:18;;;;;;;;;;;;;;;7.70;75.94;98382.50;5049773;28;19983;-56
2022/10/20 07:22:46;;;;;;;;;;;;;;;7.70;76.09;98385.22;5049968;28;19982;-56
2022/10/20 07:25:14;;;;;;;;;;;;;;;7.83;76.25;98383.78;5047503;28;19952;-56
2022/10/20 07:28:08;;;;;;;;;;;;;;;7.93;76.17;98380.19;5081658;28;19929;-57
2022/10/20 07:31:02;;;;;;;;;;;;;;;8.02;76.08;98375.78;5040068;28;19963;-56
2022/10/20 07:33:31;;;;;;;;;;;;;;;8.04;76.26;98374.44;5049367;28;19982;-57
2022/10/20 07:36:00;;;;;;;;;;;;;;;8.16;76.13;98371.34;5051439;28;20015;-56
2022/10/20 07:38:28;;;;;;;;;;;;;;;8.25;76.16;98369.63;5050793;28;19924;-56
2022/10/20 07:41:01;;;;;;;;;;;;;;;8.39;75.98;98381.44;5087541;28;19924;-56
2022/10/20 07:43:29;;;;;;;;;;;;;;;8.47;75.75;98382.72;5050221;28;19925;-56
2022/10/20 07:45:57;;;;;;;;;;;;;;;8.62;75.54;98368.22;5046151;28;19946;-56
2022/10/20 07:48:25;;;;;;;;;;;;;;;8.71;75.13;98365.69;5052663;28;19971;-55
2022/10/20 07:50:54;;;;;;;;;;;;;;;8.86;75.24;98365.53;5054038;28;19960;-56
2022/10/20 07:53:22;;;;;;;;;;;;;;;8.97;74.90;98364.31;5085029;28;19929;-55
2022/10/20 07:55:50;;;;;;;;;;;;;;;9.06;74.50;98356.34;5055070;28;19933;-57
2022/10/20 07:58:18;;;;;;;;;;;;;;;9.14;73.96;98348.34;5052693;28;19935;-57
2022/10/20 08:00:46;;;;;;;;;;;;;;;9.22;73.75;98352.34;5048892;28;19925;-56
2022/10/20 08:03:14;;;;;;;;;;;;;;;9.30;73.52;98348.97;5051385;28;20297;-57
2022/10/20 08:05:41;;;;;;;;;;;;;;;9.42;72.81;98353.94;5052500;28;20640;-56
2022/10/20 08:08:11;;;;;;;;;;;;;;;9.53;72.77;98343.75;5052352;28;20378;-57
2022/10/20 08:10:40;;;;;;;;;;;;;;;9.58;72.00;98346.41;5059851;28;19925;-56
2022/10/20 08:13:09;;;;;;;;;;;;;;;9.68;71.96;98346.25;5053939;28;19932;-56
2022/10/20 08:15:37;;;;;;;;;;;;;;;9.71;71.86;98351.91;5048964;28;19925;-56
2022/10/20 08:18:07;;;;;;;;;;;;;;;9.82;72.25;98338.19;5049830;28;19968;-56
2022/10/20 08:20:36;;;;;;;;;;;;;;;9.89;71.59;98325.03;5045755;28;20281;-56
2022/10/20 08:23:04;;;;;;;;;;;;;;;10.04;70.38;98321.25;5051061;28;19936;-56
2022/10/20 08:25:34;;;;;;;;;;;;;;;10.09;70.37;98313.03;5055448;28;20412;-56
2022/10/20 08:28:27;;;;;;;;;;;;;;;10.12;70.34;98313.25;5052666;28;20289;-57
2022/10/20 08:30:56;;;;;;;;;;;;;;;10.21;70.33;98310.63;5042487;28;19982;-56
2022/10/20 08:33:24;;;;;;;;;;;;;;;10.26;70.24;98299.72;5051160;28;19940;-56
2022/10/20 08:35:52;;;;;;;;;;;;;;;10.31;70.16;98298.81;5053108;28;20040;-56
2022/10/20 08:38:20;;;;;;;;;;;;;;;10.45;69.26;98299.66;5052212;28;19924;-56
2022/10/20 08:40:50;;;;;;;;;;;;;;;10.49;69.63;98293.31;5053906;28;19960;-56
2022/10/20 08:43:20;;;;;;;;;;;;;;;10.55;69.02;98299.47;5052450;28;20458;-56
2022/10/20 08:45:48;;;;;;;;;;;;;;;10.63;69.20;98306.09;5047307;28;19971;-57
2022/10/20 08:48:17;;;;;;;;;;;;;;;10.68;68.72;98311.44;5053111;28;20289;-56
2022/10/20 08:50:46;;;;;;;;;;;;;;;10.70;69.02;98329.03;5047183;28;20364;-57
2022/10/20 08:53:14;;;;;;;;;;;;;;;10.78;68.31;98330.25;5048959;28;19932;-56
2022/10/20 08:55:45;;;;;;;;;;;;;;;10.92;67.57;98331.06;5049420;28;19928;-57
2022/10/20 08:58:15;;;;;;;;;;;;;;;10.90;67.26;98319.66;5052289;28;19925;-56
2022/10/20 09:00:43;;;;;;;;;;;;;;;11.04;67.55;98308.00;5047388;28;20373;-56
2022/10/20 09:03:16;;;;;;;;;;;;;;;11.11;67.56;98303.72;5052208;28;19979;-56
2022/10/20 09:05:46;;;;;;;;;;;;;;;11.18;67.61;98303.31;5048816;28;19933;-56
2022/10/20 09:08:14;;;;;;;;;;;;;;;11.15;66.79;98301.22;5041797;28;19925;-56
2022/10/20 09:10:42;;;;;;;;;;;;;;;11.19;66.70;98292.16;5053046;28;20482;-56
2022/10/20 09:13:15;;;;;;;;;;;;;;;11.30;66.89;98295.44;5050403;28;20141;-56
2022/10/20 09:15:45;;;;;;;;;;;;;;;11.35;66.66;98284.44;5048279;28;19952;-56
2022/10/20 09:18:15;;;;;;;;;;;;;;;11.40;66.73;98289.78;5051681;28;19940;-56
2022/10/20 09:20:44;;;;;;;;;;;;;;;11.43;66.33;98289.16;5051544;28;19967;-56
2022/10/20 09:23:12;;;;;;;;;;;;;;;11.49;66.37;98284.38;5049652;28;19931;-57
2022/10/20 09:26:00;;;;;;;;;;;;;;;11.58;66.20;98274.38;5080588;28;19937;-57
2022/10/20 09:28:28;;;;;;;;;;;;;;;11.66;65.66;98264.66;5047560;28;20019;-56
2022/10/20 09:31:06;;;;;;;;;;;;;;;11.75;66.21;98270.97;5043402;28;19925;-56
2022/10/20 09:33:35;;;;;;;;;;;;;;;11.86;65.35;98272.38;5048086;28;20400;-56
2022/10/20 09:36:04;;;;;;;;;;;;;;;11.88;64.70;98267.44;5050357;28;19929;-57
2022/10/20 09:38:33;;;;;;;;;;;;;;;11.89;64.68;98271.75;5049295;28;19931;-58
2022/10/20 09:41:09;;;;;;;;;;;;;;;11.95;64.87;98277.88;5049150;28;19928;-56
2022/10/20 09:43:38;;;;;;;;;;;;;;;11.97;64.77;98273.72;5047002;28;19974;-56
2022/10/20 09:46:08;;;;;;;;;;;;;;;12.03;64.23;98267.00;5046629;28;19935;-56
2022/10/20 09:48:36;;;;;;;;;;;;;;;12.18;63.79;98256.84;5046159;28;19936;-57
2022/10/20 09:51:05;;;;;;;;;;;;;;;12.20;64.20;98255.44;5050163;28;19925;-56
2022/10/20 09:53:34;;;;;;;;;;;;;;;12.29;64.89;98258.19;5053484;28;20282;-56
2022/10/20 09:56:02;;;;;;;;;;;;;;;12.40;64.80;98253.25;5051332;28;20373;-56
2022/10/20 09:58:30;;;;;;;;;;;;;;;12.51;63.86;98254.56;5051299;28;19963;-56
2022/10/20 10:00:59;;;;;;;;;;;;;;;12.57;63.62;98247.88;5047675;28;19929;-57
2022/10/20 10:03:28;;;;;;;;;;;;;;;12.73;62.78;98240.03;5047222;28;19925;-59
2022/10/20 10:05:57;;;;;;;;;;;;;;;12.77;62.72;98252.72;5051666;28;19929;-56
2022/10/20 10:08:26;;;;;;;;;;;;;;;12.87;62.52;98246.19;5043853;28;20010;-56
2022/10/20 10:10:58;;;;;;;;;;;;;;;12.92;62.31;98247.97;5050049;28;19928;-57
2022/10/20 10:13:27;;;;;;;;;;;;;;;12.96;62.16;98248.94;5048371;28;19932;-56
2022/10/20 10:16:02;;;;;;;;;;;;;;;12.98;61.70;98250.22;5045261;28;19932;-57
2022/10/20 10:18:31;;;;;;;;;;;;;;;12.94;62.43;98246.50;5049149;28;20390;-56
2022/10/20 10:21:24;;;;;;;;;;;;;;;12.92;62.00;98231.59;5083515;28;20321;-56
2022/10/20 10:23:53;;;;;;;;;;;;;;;12.81;62.18;98240.06;5048698;28;19928;-56
2022/10/20 10:26:40;;;;;;;;;;;;;;;12.83;61.91;98239.75;5050461;28;19924;-56
2022/10/20 10:29:15;;;;;;;;;;;;;;;12.82;62.30;98238.16;5049315;28;19983;-56
2022/10/20 10:31:46;;;;;;;;;;;;;;;12.85;61.72;98232.88;5044950;28;19948;-56
2022/10/20 10:35:03;;;;;;;;;;;;;;;12.90;62.45;98236.56;5048591;28;19929;-56
2022/10/20 10:37:33;;;;;;;;;;;;;;;12.96;62.71;98236.09;5052449;28;19928;-56
2022/10/20 10:40:02;;;;;;;;;;;;;;;13.06;61.94;98216.69;5050592;28;20393;-56
2022/10/20 10:42:51;;;;;;;;;;;;;;;13.02;62.56;98226.63;5050920;28;19932;-56
2022/10/20 10:45:22;;;;;;;;;;;;;;;13.07;62.52;98212.84;5040047;28;19929;-56
2022/10/20 10:48:07;;;;;;;;;;;;;;;13.14;62.59;98212.34;5049285;28;19925;-56
2022/10/20 10:50:38;;;;;;;;;;;;;;;13.19;62.22;98209.47;5044179;28;19941;-56
2022/10/20 10:53:16;;;;;;;;;;;;;;;13.17;62.67;98209.00;5056997;28;19951;-56
2022/10/20 10:55:47;;;;;;;;;;;;;;;13.27;62.56;98203.25;5047953;28;19932;-56
2022/10/20 10:58:24;;;;;;;;;;;;;;;13.31;61.67;98201.47;5051096;28;19978;-56
2022/10/20 11:00:53;;;;;;;;;;;;;;;13.37;61.45;98191.22;5053293;28;19932;-56
2022/10/20 11:03:27;;;;;;;;;;;;;;;13.45;61.56;98190.38;5052590;28;20369;-56
2022/10/20 11:06:04;;;;;;;;;;;;;;;13.59;60.61;98182.84;5067714;28;19924;-56
2022/10/20 11:08:38;;;;;;;;;;;;;;;13.70;60.30;98190.69;5067454;28;20445;-56
2022/10/20 11:11:09;;;;;;;;;;;;;;;13.81;60.26;98200.13;5074400;28;19932;-56
2022/10/20 11:13:38;;;;;;;;;;;;;;;13.84;59.70;98211.19;5056034;28;19935;-57
2022/10/20 11:16:08;;;;;;;;;;;;;;;13.83;59.70;98217.78;5060777;28;19929;-56
2022/10/20 11:18:42;;;;;;;;;;;;;;;13.82;59.94;98215.38;5052797;28;20525;-56
2022/10/20 11:21:15;;;;;;;;;;;;;;;13.85;60.49;98215.53;5053482;28;20129;-56
2022/10/20 11:23:57;;;;;;;;;;;;;;;13.94;60.13;98215.50;5066283;28;19935;-56
2022/10/20 11:26:28;;;;;;;;;;;;;;;14.04;60.20;98220.63;5052585;28;19936;-56
2022/10/20 11:28:56;;;;;;;;;;;;;;;14.15;59.75;98212.88;5052877;28;20035;-56
2022/10/20 11:31:26;;;;;;;;;;;;;;;14.14;59.64;98211.28;5042973;28;19928;-56
2022/10/20 11:33:56;;;;;;;;;;;;;;;14.16;59.86;98198.88;5054362;28;19925;-56
2022/10/20 11:36:24;;;;;;;;;;;;;;;14.20;59.34;98181.84;5053818;28;20023;-56
2022/10/20 11:38:52;;;;;;;;;;;;;;;14.28;59.18;98173.59;5040035;28;20332;-56
2022/10/20 11:41:47;;;;;;;;;;;;;;;14.28;59.73;98164.59;5063411;28;20377;-56
2022/10/20 11:44:16;;;;;;;;;;;;;;;14.29;60.04;98175.19;5052175;28;19935;-56
2022/10/20 11:47:09;;;;;;;;;;;;;;;14.38;60.14;98166.94;5041521;28;19933;-56
2022/10/20 11:49:38;;;;;;;;;;;;;;;14.38;59.36;98151.38;5075399;28;19983;-56
2022/10/20 11:52:39;;;;;;;;;;;;;;;14.40;59.38;98162.75;5053648;28;19925;-56
2022/10/20 11:55:22;;;;;;;;;;;;;;;14.49;59.63;98154.56;5048739;28;19932;-56
2022/10/20 11:57:54;;;;;;;;;;;;;;;14.65;59.57;98150.09;5033543;28;20022;-56
2022/10/20 12:00:42;;;;;;;;;;;;;;;14.79;58.95;98151.78;5045512;28;19970;-56
2022/10/20 12:06:28;;;;;;;;;;;;;;;15.07;58.32;98144.63;5051596;28;19929;-56
2022/10/20 12:09:03;;;;;;;;;;;;;;;15.15;58.40;98160.19;5050688;28;19925;-56
2022/10/20 12:11:32;;;;;;;;;;;;;;;15.28;57.60;98149.28;5052175;28;19924;-56
2022/10/20 12:14:03;;;;;;;;;;;;;;;15.27;57.30;98139.47;5049428;28;19979;-60
2022/10/20 12:16:50;;;;;;;;;;;;;;;15.29;57.38;98134.47;5077578;28;20220;-57
2022/10/20 12:19:19;;;;;;;;;;;;;;;15.23;57.82;98131.13;5052562;28;20372;-56
2022/10/20 12:21:53;;;;;;;;;;;;;;;15.18;57.76;98140.38;5056733;28;20447;-57
2022/10/20 12:24:35;;;;;;;;;;;;;;;15.15;58.41;98151.16;5052896;28;19967;-56
2022/10/20 12:27:17;;;;;;;;;;;;;;;15.10;58.45;98148.63;5043620;28;19929;-56
2022/10/20 12:29:54;;;;;;;;;;;;;;;15.04;58.47;98139.03;5049168;28;19929;-56
2022/10/20 12:32:39;;;;;;;;;;;;;;;15.05;58.10;98124.22;5044521;28;19928;-56
2022/10/20 12:35:31;;;;;;;;;;;;;;;15.05;58.73;98125.00;5050212;28;19933;-56
2022/10/20 12:38:00;;;;;;;;;;;;;;;14.98;58.97;98119.28;5046555;28;19925;-57
2022/10/20 12:40:30;;;;;;;;;;;;;;;14.97;59.63;98125.91;5047826;28;20446;-56
2022/10/20 12:42:58;;;;;;;;;;;;;;;14.99;58.40;98125.56;5051863;28;19975;-56
2022/10/20 12:45:29;;;;;;;;;;;;;;;15.04;58.36;98130.81;5045342;28;20019;-56
2022/10/20 12:47:58;;;;;;;;;;;;;;;15.06;58.94;98128.53;5046421;28;19935;-56
2022/10/20 12:50:32;;;;;;;;;;;;;;;15.12;58.63;98119.78;5053810;28;20019;-56
2022/10/20 12:53:08;;;;;;;;;;;;;;;15.14;58.96;98119.47;5054574;28;19924;-57
2022/10/20 12:55:38;;;;;;;;;;;;;;;15.17;58.45;98114.09;5051291;28;20015;-57
2022/10/20 12:58:12;;;;;;;;;;;;;;;15.17;58.51;98110.56;5054215;28;20397;-57
2022/10/20 13:01:03;;;;;;;;;;;;;;;15.17;58.85;98118.78;5077221;28;20386;-57
2022/10/20 13:03:37;;;;;;;;;;;;;;;15.14;58.53;98105.78;5080641;28;19924;-58
2022/10/20 13:06:20;;;;;;;;;;;;;;;15.14;58.60;98111.25;5050381;28;19925;-56
2022/10/20 13:09:03;;;;;;;;;;;;;;;15.24;58.44;98121.00;5048654;28;19928;-56
2022/10/20 13:11:43;;;;;;;;;;;;;;;15.28;58.33;98130.13;5051599;28;19960;-56
2022/10/20 13:14:22;;;;;;;;;;;;;;;15.34;58.87;98120.56;5052422;28;19939;-57
2022/10/20 13:16:51;;;;;;;;;;;;;;;15.38;59.05;98116.81;5046333;28;19933;-56
2022/10/20 13:19:21;;;;;;;;;;;;;;;15.49;57.91;98116.38;5050668;28;20002;-56
2022/10/20 13:21:49;;;;;;;;;;;;;;;15.53;58.38;98122.78;5051802;28;19976;-56
2022/10/20 13:24:18;;;;;;;;;;;;;;;15.57;58.54;98110.03;5046534;28;19972;-56
2022/10/20 13:26:50;;;;;;;;;;;;;;;15.66;58.52;98102.56;5062262;28;19925;-56